sensor_id;sensor_type;location;lat;lon;timestamp;P1;durP1;ratioP1;P2;durP2;ratioP2
42964;SDS011;28604;51.204;22.552;2023-04-25T00:01:40;12.70;;;6.95;;
42964;SDS011;28604;51.204;22.552;2023-04-25T00:04:06;9.45;;;6.75;;
42964;SDS011;28604;51.204;22.552;2023-04-25T00:06:34;10.55;;;7.30;;
42964;SDS011;28604;51.204;22.552;2023-04-25T00:09:02;7.53;;;6.78;;
42964;SDS011;28604;51.204;22.552;2023-04-25T00:11:29;10.57;;;6.40;;
42964;SDS011;28604;51.204;22.552;2023-04-25T00:13:56;9.68;;;6.50;;
42964;SDS011;28604;51.204;22.552;2023-04-25T00:16:22;7.90;;;6.80;;
42964;SDS011;28604;51.204;22.552;2023-04-25T00:18:49;7.18;;;6.50;;
42964;SDS011;28604;51.204;22.552;2023-04-25T00:21:17;13.05;;;6.90;;
42964;SDS011;28604;51.204;22.552;2023-04-25T00:23:45;9.75;;;7.32;;
42964;SDS011;28604;51.204;22.552;2023-04-25T00:26:11;11.85;;;7.70;;
42964;SDS011;28604;51.204;22.552;2023-04-25T00:28:39;7.72;;;6.93;;
42964;SDS011;28604;51.204;22.552;2023-04-25T00:31:05;7.40;;;6.53;;
42964;SDS011;28604;51.204;22.552;2023-04-25T00:33:31;15.05;;;7.18;;
42964;SDS011;28604;51.204;22.552;2023-04-25T00:35:57;11.23;;;7.18;;
42964;SDS011;28604;51.204;22.552;2023-04-25T00:38:23;9.70;;;7.43;;
42964;SDS011;28604;51.204;22.552;2023-04-25T00:40:49;7.47;;;6.85;;
42964;SDS011;28604;51.204;22.552;2023-04-25T00:43:15;9.98;;;7.32;;
42964;SDS011;28604;51.204;22.552;2023-04-25T00:45:41;9.57;;;6.80;;
42964;SDS011;28604;51.204;22.552;2023-04-25T00:48:08;9.15;;;7.20;;
42964;SDS011;28604;51.204;22.552;2023-04-25T00:50:35;10.65;;;7.53;;
42964;SDS011;28604;51.204;22.552;2023-04-25T00:53:01;11.25;;;7.85;;
42964;SDS011;28604;51.204;22.552;2023-04-25T00:55:29;10.40;;;8.88;;
42964;SDS011;28604;51.204;22.552;2023-04-25T00:57:56;9.18;;;8.27;;
42964;SDS011;28604;51.204;22.552;2023-04-25T01:00:23;10.45;;;8.63;;
42964;SDS011;28604;51.204;22.552;2023-04-25T01:02:49;8.90;;;7.90;;
42964;SDS011;28604;51.204;22.552;2023-04-25T01:05:15;11.45;;;8.00;;
42964;SDS011;28604;51.204;22.552;2023-04-25T01:07:42;9.10;;;7.78;;
42964;SDS011;28604;51.204;22.552;2023-04-25T01:10:09;10.70;;;7.90;;
42964;SDS011;28604;51.204;22.552;2023-04-25T01:12:36;10.05;;;8.00;;
42964;SDS011;28604;51.204;22.552;2023-04-25T01:15:03;8.95;;;8.10;;
42964;SDS011;28604;51.204;22.552;2023-04-25T01:17:29;8.75;;;7.10;;
42964;SDS011;28604;51.204;22.552;2023-04-25T01:19:56;10.38;;;7.72;;
42964;SDS011;28604;51.204;22.552;2023-04-25T01:22:22;11.05;;;7.95;;
42964;SDS011;28604;51.204;22.552;2023-04-25T01:24:50;11.98;;;7.30;;
42964;SDS011;28604;51.204;22.552;2023-04-25T01:27:16;8.52;;;7.57;;
42964;SDS011;28604;51.204;22.552;2023-04-25T01:29:43;8.55;;;6.68;;
42964;SDS011;28604;51.204;22.552;2023-04-25T01:32:09;10.98;;;8.23;;
42964;SDS011;28604;51.204;22.552;2023-04-25T01:34:36;10.07;;;7.72;;
42964;SDS011;28604;51.204;22.552;2023-04-25T01:37:02;8.45;;;7.57;;
42964;SDS011;28604;51.204;22.552;2023-04-25T01:39:28;7.68;;;6.95;;
42964;SDS011;28604;51.204;22.552;2023-04-25T01:41:54;9.32;;;7.30;;
42964;SDS011;28604;51.204;22.552;2023-04-25T01:44:21;12.20;;;8.20;;
42964;SDS011;28604;51.204;22.552;2023-04-25T01:46:47;10.95;;;8.02;;
42964;SDS011;28604;51.204;22.552;2023-04-25T01:49:13;9.05;;;7.55;;
42964;SDS011;28604;51.204;22.552;2023-04-25T01:51:40;8.10;;;7.30;;
42964;SDS011;28604;51.204;22.552;2023-04-25T01:54:08;9.95;;;8.65;;
42964;SDS011;28604;51.204;22.552;2023-04-25T01:56:36;11.25;;;9.18;;
42964;SDS011;28604;51.204;22.552;2023-04-25T01:59:04;9.70;;;7.78;;
42964;SDS011;28604;51.204;22.552;2023-04-25T02:01:50;11.18;;;8.48;;
42964;SDS011;28604;51.204;22.552;2023-04-25T02:04:24;11.15;;;8.63;;
42964;SDS011;28604;51.204;22.552;2023-04-25T02:06:51;10.85;;;8.48;;
42964;SDS011;28604;51.204;22.552;2023-04-25T02:09:17;9.50;;;8.65;;
42964;SDS011;28604;51.204;22.552;2023-04-25T02:11:52;11.38;;;8.27;;
42964;SDS011;28604;51.204;22.552;2023-04-25T02:17:04;9.65;;;8.07;;
42964;SDS011;28604;51.204;22.552;2023-04-25T02:19:31;11.02;;;8.90;;
42964;SDS011;28604;51.204;22.552;2023-04-25T02:21:57;14.70;;;9.40;;
42964;SDS011;28604;51.204;22.552;2023-04-25T02:24:23;10.10;;;8.40;;
42964;SDS011;28604;51.204;22.552;2023-04-25T02:26:49;10.65;;;7.28;;
42964;SDS011;28604;51.204;22.552;2023-04-25T02:29:16;12.43;;;8.55;;
42964;SDS011;28604;51.204;22.552;2023-04-25T02:31:42;8.60;;;7.75;;
42964;SDS011;28604;51.204;22.552;2023-04-25T02:34:08;12.18;;;8.25;;
42964;SDS011;28604;51.204;22.552;2023-04-25T02:36:36;12.15;;;9.07;;
42964;SDS011;28604;51.204;22.552;2023-04-25T02:39:02;10.15;;;8.95;;
42964;SDS011;28604;51.204;22.552;2023-04-25T02:41:28;9.55;;;8.65;;
42964;SDS011;28604;51.204;22.552;2023-04-25T02:43:55;9.63;;;8.00;;
42964;SDS011;28604;51.204;22.552;2023-04-25T02:46:20;9.05;;;8.18;;
42964;SDS011;28604;51.204;22.552;2023-04-25T02:48:46;10.15;;;9.05;;
42964;SDS011;28604;51.204;22.552;2023-04-25T02:51:12;10.25;;;9.25;;
42964;SDS011;28604;51.204;22.552;2023-04-25T02:53:39;12.55;;;8.40;;
42964;SDS011;28604;51.204;22.552;2023-04-25T02:56:05;9.38;;;8.38;;
42964;SDS011;28604;51.204;22.552;2023-04-25T02:58:31;9.93;;;8.35;;
42964;SDS011;28604;51.204;22.552;2023-04-25T03:00:57;11.82;;;8.95;;
42964;SDS011;28604;51.204;22.552;2023-04-25T03:03:23;13.52;;;8.57;;
42964;SDS011;28604;51.204;22.552;2023-04-25T03:05:50;10.70;;;9.65;;
42964;SDS011;28604;51.204;22.552;2023-04-25T03:08:21;12.80;;;9.82;;
42964;SDS011;28604;51.204;22.552;2023-04-25T03:10:48;10.68;;;9.27;;
42964;SDS011;28604;51.204;22.552;2023-04-25T03:13:15;11.32;;;9.52;;
42964;SDS011;28604;51.204;22.552;2023-04-25T03:15:43;14.40;;;10.93;;
42964;SDS011;28604;51.204;22.552;2023-04-25T03:18:09;11.50;;;9.95;;
42964;SDS011;28604;51.204;22.552;2023-04-25T03:20:35;12.00;;;10.38;;
42964;SDS011;28604;51.204;22.552;2023-04-25T03:23:02;10.23;;;8.73;;
42964;SDS011;28604;51.204;22.552;2023-04-25T03:25:29;12.02;;;8.93;;
42964;SDS011;28604;51.204;22.552;2023-04-25T03:27:55;10.18;;;9.18;;
42964;SDS011;28604;51.204;22.552;2023-04-25T03:30:21;12.05;;;9.75;;
42964;SDS011;28604;51.204;22.552;2023-04-25T03:32:48;11.25;;;8.68;;
42964;SDS011;28604;51.204;22.552;2023-04-25T03:35:16;10.85;;;9.40;;
42964;SDS011;28604;51.204;22.552;2023-04-25T03:37:42;11.55;;;9.00;;
42964;SDS011;28604;51.204;22.552;2023-04-25T03:40:12;11.05;;;9.75;;
42964;SDS011;28604;51.204;22.552;2023-04-25T03:42:57;9.05;;;8.13;;
42964;SDS011;28604;51.204;22.552;2023-04-25T03:45:23;10.90;;;8.90;;
42964;SDS011;28604;51.204;22.552;2023-04-25T03:47:49;8.88;;;8.00;;
42964;SDS011;28604;51.204;22.552;2023-04-25T03:50:15;10.20;;;8.52;;
42964;SDS011;28604;51.204;22.552;2023-04-25T03:52:41;9.02;;;8.00;;
42964;SDS011;28604;51.204;22.552;2023-04-25T03:55:08;12.20;;;8.23;;
42964;SDS011;28604;51.204;22.552;2023-04-25T03:57:34;9.23;;;8.30;;
42964;SDS011;28604;51.204;22.552;2023-04-25T04:00:00;17.38;;;9.13;;
42964;SDS011;28604;51.204;22.552;2023-04-25T04:02:28;11.30;;;9.48;;
42964;SDS011;28604;51.204;22.552;2023-04-25T04:04:56;9.90;;;8.20;;
42964;SDS011;28604;51.204;22.552;2023-04-25T04:07:23;8.73;;;7.97;;
42964;SDS011;28604;51.204;22.552;2023-04-25T04:09:52;9.88;;;8.57;;
42964;SDS011;28604;51.204;22.552;2023-04-25T04:12:24;11.03;;;8.53;;
42964;SDS011;28604;51.204;22.552;2023-04-25T04:14:50;12.77;;;8.50;;
42964;SDS011;28604;51.204;22.552;2023-04-25T04:17:16;9.73;;;8.70;;
42964;SDS011;28604;51.204;22.552;2023-04-25T04:19:42;12.68;;;9.60;;
42964;SDS011;28604;51.204;22.552;2023-04-25T04:22:12;12.00;;;9.27;;
42964;SDS011;28604;51.204;22.552;2023-04-25T04:24:39;11.48;;;9.48;;
42964;SDS011;28604;51.204;22.552;2023-04-25T04:27:07;11.30;;;10.00;;
42964;SDS011;28604;51.204;22.552;2023-04-25T04:29:40;10.73;;;9.65;;
42964;SDS011;28604;51.204;22.552;2023-04-25T04:32:16;10.15;;;9.20;;
42964;SDS011;28604;51.204;22.552;2023-04-25T04:34:43;12.63;;;9.68;;
42964;SDS011;28604;51.204;22.552;2023-04-25T04:37:13;9.70;;;8.80;;
42964;SDS011;28604;51.204;22.552;2023-04-25T04:39:41;11.70;;;9.90;;
42964;SDS011;28604;51.204;22.552;2023-04-25T04:42:16;18.08;;;9.57;;
42964;SDS011;28604;51.204;22.552;2023-04-25T04:45:08;12.47;;;10.60;;
42964;SDS011;28604;51.204;22.552;2023-04-25T04:47:44;11.90;;;10.00;;
42964;SDS011;28604;51.204;22.552;2023-04-25T04:50:32;15.13;;;10.77;;
42964;SDS011;28604;51.204;22.552;2023-04-25T04:53:17;15.00;;;10.90;;
42964;SDS011;28604;51.204;22.552;2023-04-25T04:55:55;15.73;;;10.65;;
42964;SDS011;28604;51.204;22.552;2023-04-25T04:58:40;11.25;;;10.13;;
42964;SDS011;28604;51.204;22.552;2023-04-25T05:01:25;14.02;;;10.25;;
42964;SDS011;28604;51.204;22.552;2023-04-25T05:04:21;10.43;;;9.13;;
42964;SDS011;28604;51.204;22.552;2023-04-25T05:07:16;14.60;;;9.65;;
42964;SDS011;28604;51.204;22.552;2023-04-25T05:10:02;10.98;;;9.80;;
42964;SDS011;28604;51.204;22.552;2023-04-25T05:12:47;11.88;;;8.65;;
42964;SDS011;28604;51.204;22.552;2023-04-25T05:15:34;9.70;;;8.27;;
42964;SDS011;28604;51.204;22.552;2023-04-25T05:18:18;12.10;;;8.80;;
42964;SDS011;28604;51.204;22.552;2023-04-25T05:20:52;10.13;;;7.75;;
42964;SDS011;28604;51.204;22.552;2023-04-25T05:23:38;9.15;;;8.13;;
42964;SDS011;28604;51.204;22.552;2023-04-25T05:26:23;9.27;;;8.27;;
42964;SDS011;28604;51.204;22.552;2023-04-25T05:28:59;8.32;;;7.55;;
42964;SDS011;28604;51.204;22.552;2023-04-25T05:31:37;8.18;;;7.38;;
42964;SDS011;28604;51.204;22.552;2023-04-25T05:34:28;10.68;;;7.40;;
42964;SDS011;28604;51.204;22.552;2023-04-25T05:36:58;8.05;;;7.25;;
42964;SDS011;28604;51.204;22.552;2023-04-25T05:39:24;7.38;;;6.68;;
42964;SDS011;28604;51.204;22.552;2023-04-25T05:42:10;8.85;;;6.60;;
42964;SDS011;28604;51.204;22.552;2023-04-25T05:45:01;6.60;;;6.00;;
42964;SDS011;28604;51.204;22.552;2023-04-25T05:47:56;6.38;;;5.47;;
42964;SDS011;28604;51.204;22.552;2023-04-25T05:50:42;6.70;;;6.05;;
42964;SDS011;28604;51.204;22.552;2023-04-25T05:53:40;6.28;;;5.75;;
42964;SDS011;28604;51.204;22.552;2023-04-25T05:56:05;6.43;;;4.82;;
42964;SDS011;28604;51.204;22.552;2023-04-25T05:58:32;5.45;;;5.05;;
42964;SDS011;28604;51.204;22.552;2023-04-25T06:00:59;6.22;;;5.63;;
42964;SDS011;28604;51.204;22.552;2023-04-25T06:03:25;6.90;;;6.30;;
42964;SDS011;28604;51.204;22.552;2023-04-25T06:05:51;7.00;;;6.13;;
42964;SDS011;28604;51.204;22.552;2023-04-25T06:08:19;9.90;;;7.97;;
42964;SDS011;28604;51.204;22.552;2023-04-25T06:10:45;9.02;;;7.93;;
42964;SDS011;28604;51.204;22.552;2023-04-25T06:13:11;8.55;;;7.75;;
42964;SDS011;28604;51.204;22.552;2023-04-25T06:15:37;14.55;;;8.40;;
42964;SDS011;28604;51.204;22.552;2023-04-25T06:18:03;7.40;;;6.70;;
42964;SDS011;28604;51.204;22.552;2023-04-25T06:20:29;7.65;;;6.78;;
42964;SDS011;28604;51.204;22.552;2023-04-25T06:22:58;6.65;;;6.05;;
42964;SDS011;28604;51.204;22.552;2023-04-25T06:25:36;7.25;;;6.10;;
42964;SDS011;28604;51.204;22.552;2023-04-25T06:28:03;9.98;;;7.78;;
42964;SDS011;28604;51.204;22.552;2023-04-25T06:30:29;11.25;;;8.23;;
42964;SDS011;28604;51.204;22.552;2023-04-25T06:33:01;10.10;;;8.63;;
42964;SDS011;28604;51.204;22.552;2023-04-25T06:35:28;17.77;;;12.27;;
42964;SDS011;28604;51.204;22.552;2023-04-25T06:37:54;22.38;;;13.18;;
42964;SDS011;28604;51.204;22.552;2023-04-25T06:40:22;19.85;;;14.43;;
42964;SDS011;28604;51.204;22.552;2023-04-25T06:42:48;21.52;;;14.70;;
42964;SDS011;28604;51.204;22.552;2023-04-25T06:45:33;20.40;;;13.68;;
42964;SDS011;28604;51.204;22.552;2023-04-25T06:47:59;23.67;;;16.27;;
42964;SDS011;28604;51.204;22.552;2023-04-25T06:50:25;17.30;;;11.85;;
42964;SDS011;28604;51.204;22.552;2023-04-25T06:52:51;13.65;;;10.90;;
42964;SDS011;28604;51.204;22.552;2023-04-25T06:55:19;15.27;;;10.52;;
42964;SDS011;28604;51.204;22.552;2023-04-25T06:58:11;11.57;;;8.73;;
42964;SDS011;28604;51.204;22.552;2023-04-25T07:01:12;12.25;;;9.40;;
42964;SDS011;28604;51.204;22.552;2023-04-25T07:03:38;13.05;;;9.57;;
42964;SDS011;28604;51.204;22.552;2023-04-25T07:06:11;15.57;;;9.15;;
42964;SDS011;28604;51.204;22.552;2023-04-25T07:08:37;15.00;;;9.73;;
42964;SDS011;28604;51.204;22.552;2023-04-25T07:11:03;11.85;;;9.98;;
42964;SDS011;28604;51.204;22.552;2023-04-25T07:13:29;16.08;;;11.13;;
42964;SDS011;28604;51.204;22.552;2023-04-25T07:15:55;13.07;;;9.63;;
42964;SDS011;28604;51.204;22.552;2023-04-25T07:18:23;10.98;;;9.80;;
42964;SDS011;28604;51.204;22.552;2023-04-25T07:20:51;10.63;;;8.82;;
42964;SDS011;28604;51.204;22.552;2023-04-25T07:23:18;10.05;;;9.02;;
42964;SDS011;28604;51.204;22.552;2023-04-25T07:25:43;9.07;;;8.18;;
42964;SDS011;28604;51.204;22.552;2023-04-25T07:28:10;9.43;;;8.57;;
42964;SDS011;28604;51.204;22.552;2023-04-25T07:30:36;10.18;;;9.10;;
42964;SDS011;28604;51.204;22.552;2023-04-25T07:33:03;10.07;;;9.07;;
42964;SDS011;28604;51.204;22.552;2023-04-25T07:35:29;12.02;;;8.90;;
42964;SDS011;28604;51.204;22.552;2023-04-25T07:37:56;11.60;;;9.15;;
42964;SDS011;28604;51.204;22.552;2023-04-25T07:40:24;8.48;;;7.68;;
42964;SDS011;28604;51.204;22.552;2023-04-25T07:42:55;9.98;;;8.60;;
42964;SDS011;28604;51.204;22.552;2023-04-25T07:45:27;8.90;;;8.07;;
42964;SDS011;28604;51.204;22.552;2023-04-25T07:47:54;10.38;;;8.55;;
42964;SDS011;28604;51.204;22.552;2023-04-25T07:50:20;6.75;;;6.15;;
42964;SDS011;28604;51.204;22.552;2023-04-25T07:52:46;8.63;;;7.68;;
42964;SDS011;28604;51.204;22.552;2023-04-25T07:55:22;7.72;;;5.43;;
42964;SDS011;28604;51.204;22.552;2023-04-25T07:58:09;5.55;;;5.05;;
42964;SDS011;28604;51.204;22.552;2023-04-25T08:00:38;5.47;;;4.95;;
42964;SDS011;28604;51.204;22.552;2023-04-25T08:03:29;6.80;;;4.90;;
42964;SDS011;28604;51.204;22.552;2023-04-25T08:05:57;6.10;;;4.80;;
42964;SDS011;28604;51.204;22.552;2023-04-25T08:08:25;3.45;;;3.25;;
42964;SDS011;28604;51.204;22.552;2023-04-25T08:10:51;4.18;;;3.75;;
42964;SDS011;28604;51.204;22.552;2023-04-25T08:13:17;3.10;;;2.90;;
42964;SDS011;28604;51.204;22.552;2023-04-25T08:15:44;4.40;;;2.65;;
42964;SDS011;28604;51.204;22.552;2023-04-25T08:18:10;3.20;;;3.00;;
42964;SDS011;28604;51.204;22.552;2023-04-25T08:20:36;3.40;;;3.20;;
42964;SDS011;28604;51.204;22.552;2023-04-25T08:23:05;3.13;;;2.60;;
42964;SDS011;28604;51.204;22.552;2023-04-25T08:25:50;2.78;;;2.67;;
42964;SDS011;28604;51.204;22.552;2023-04-25T08:28:20;3.25;;;2.95;;
42964;SDS011;28604;51.204;22.552;2023-04-25T08:30:46;3.22;;;3.03;;
42964;SDS011;28604;51.204;22.552;2023-04-25T08:33:17;4.00;;;2.20;;
42964;SDS011;28604;51.204;22.552;2023-04-25T08:36:09;3.88;;;2.58;;
42964;SDS011;28604;51.204;22.552;2023-04-25T08:38:36;2.50;;;2.40;;
42964;SDS011;28604;51.204;22.552;2023-04-25T08:41:04;2.97;;;2.67;;
42964;SDS011;28604;51.204;22.552;2023-04-25T08:43:31;2.58;;;2.47;;
42964;SDS011;28604;51.204;22.552;2023-04-25T08:45:59;3.33;;;3.05;;
42964;SDS011;28604;51.204;22.552;2023-04-25T08:48:36;3.20;;;2.90;;
42964;SDS011;28604;51.204;22.552;2023-04-25T08:51:04;2.50;;;2.50;;
42964;SDS011;28604;51.204;22.552;2023-04-25T08:53:32;3.72;;;2.47;;
42964;SDS011;28604;51.204;22.552;2023-04-25T08:56:01;3.55;;;3.25;;
42964;SDS011;28604;51.204;22.552;2023-04-25T08:58:28;3.22;;;3.13;;
42964;SDS011;28604;51.204;22.552;2023-04-25T09:00:55;4.28;;;3.67;;
42964;SDS011;28604;51.204;22.552;2023-04-25T09:03:25;5.03;;;4.47;;
42964;SDS011;28604;51.204;22.552;2023-04-25T09:05:51;5.47;;;4.63;;
42964;SDS011;28604;51.204;22.552;2023-04-25T09:08:18;4.90;;;4.38;;
42964;SDS011;28604;51.204;22.552;2023-04-25T09:10:44;4.35;;;4.10;;
42964;SDS011;28604;51.204;22.552;2023-04-25T09:13:11;13.38;;;4.10;;
42964;SDS011;28604;51.204;22.552;2023-04-25T09:16:07;5.45;;;3.70;;
42964;SDS011;28604;51.204;22.552;2023-04-25T09:18:44;5.32;;;3.50;;
42964;SDS011;28604;51.204;22.552;2023-04-25T09:21:12;3.20;;;2.92;;
42964;SDS011;28604;51.204;22.552;2023-04-25T09:23:46;3.75;;;3.10;;
42964;SDS011;28604;51.204;22.552;2023-04-25T09:26:15;3.70;;;3.35;;
42964;SDS011;28604;51.204;22.552;2023-04-25T09:28:44;3.60;;;3.40;;
42964;SDS011;28604;51.204;22.552;2023-04-25T09:31:21;4.65;;;4.35;;
42964;SDS011;28604;51.204;22.552;2023-04-25T09:33:49;6.28;;;4.40;;
42964;SDS011;28604;51.204;22.552;2023-04-25T09:36:23;6.50;;;5.43;;
42964;SDS011;28604;51.204;22.552;2023-04-25T09:39:02;5.57;;;5.07;;
42964;SDS011;28604;51.204;22.552;2023-04-25T09:41:41;5.18;;;4.65;;
42964;SDS011;28604;51.204;22.552;2023-04-25T09:44:07;6.32;;;5.32;;
42964;SDS011;28604;51.204;22.552;2023-04-25T09:46:37;4.93;;;4.53;;
42964;SDS011;28604;51.204;22.552;2023-04-25T09:49:08;5.88;;;4.88;;
42964;SDS011;28604;51.204;22.552;2023-04-25T09:51:53;6.05;;;5.65;;
42964;SDS011;28604;51.204;22.552;2023-04-25T09:54:24;5.18;;;4.75;;
42964;SDS011;28604;51.204;22.552;2023-04-25T09:57:00;5.82;;;5.32;;
42964;SDS011;28604;51.204;22.552;2023-04-25T09:59:39;5.55;;;5.05;;
42964;SDS011;28604;51.204;22.552;2023-04-25T10:02:08;11.07;;;5.50;;
42964;SDS011;28604;51.204;22.552;2023-04-25T10:04:38;5.55;;;5.20;;
42964;SDS011;28604;51.204;22.552;2023-04-25T10:07:11;6.40;;;5.60;;
42964;SDS011;28604;51.204;22.552;2023-04-25T10:09:38;6.97;;;6.40;;
42964;SDS011;28604;51.204;22.552;2023-04-25T10:12:05;6.55;;;6.05;;
42964;SDS011;28604;51.204;22.552;2023-04-25T10:14:33;6.63;;;6.18;;
42964;SDS011;28604;51.204;22.552;2023-04-25T10:16:59;6.43;;;5.57;;
42964;SDS011;28604;51.204;22.552;2023-04-25T10:19:26;5.45;;;4.95;;
42964;SDS011;28604;51.204;22.552;2023-04-25T10:21:57;5.25;;;4.75;;
42964;SDS011;28604;51.204;22.552;2023-04-25T10:24:23;3.97;;;3.70;;
42964;SDS011;28604;51.204;22.552;2023-04-25T10:26:51;7.15;;;4.22;;
42964;SDS011;28604;51.204;22.552;2023-04-25T10:29:24;5.30;;;4.90;;
42964;SDS011;28604;51.204;22.552;2023-04-25T10:31:51;5.25;;;4.75;;
42964;SDS011;28604;51.204;22.552;2023-04-25T10:34:17;4.38;;;4.05;;
42964;SDS011;28604;51.204;22.552;2023-04-25T10:36:49;4.93;;;4.53;;
42964;SDS011;28604;51.204;22.552;2023-04-25T10:39:26;4.57;;;4.28;;
42964;SDS011;28604;51.204;22.552;2023-04-25T10:41:55;5.60;;;5.10;;
42964;SDS011;28604;51.204;22.552;2023-04-25T10:44:22;5.35;;;4.88;;
42964;SDS011;28604;51.204;22.552;2023-04-25T10:46:48;6.97;;;4.65;;
42964;SDS011;28604;51.204;22.552;2023-04-25T10:49:30;6.43;;;5.00;;
42964;SDS011;28604;51.204;22.552;2023-04-25T10:52:12;6.07;;;4.90;;
42964;SDS011;28604;51.204;22.552;2023-04-25T10:54:53;4.43;;;4.03;;
42964;SDS011;28604;51.204;22.552;2023-04-25T11:02:37;4.88;;;4.40;;
42964;SDS011;28604;51.204;22.552;2023-04-25T11:05:19;5.10;;;4.80;;
42964;SDS011;28604;51.204;22.552;2023-04-25T11:07:59;5.05;;;4.55;;
42964;SDS011;28604;51.204;22.552;2023-04-25T11:10:26;7.28;;;4.90;;
42964;SDS011;28604;51.204;22.552;2023-04-25T11:12:53;8.07;;;5.18;;
42964;SDS011;28604;51.204;22.552;2023-04-25T11:15:19;10.90;;;5.30;;
42964;SDS011;28604;51.204;22.552;2023-04-25T11:17:45;9.13;;;4.78;;
42964;SDS011;28604;51.204;22.552;2023-04-25T11:20:11;4.55;;;4.07;;
42964;SDS011;28604;51.204;22.552;2023-04-25T11:22:39;4.82;;;4.43;;
42964;SDS011;28604;51.204;22.552;2023-04-25T11:25:08;4.85;;;4.53;;
42964;SDS011;28604;51.204;22.552;2023-04-25T11:27:51;4.72;;;4.32;;
42964;SDS011;28604;51.204;22.552;2023-04-25T11:30:18;4.55;;;4.30;;
42964;SDS011;28604;51.204;22.552;2023-04-25T11:32:45;5.28;;;4.88;;
42964;SDS011;28604;51.204;22.552;2023-04-25T11:35:11;7.88;;;5.03;;
42964;SDS011;28604;51.204;22.552;2023-04-25T11:37:41;5.03;;;4.63;;
42964;SDS011;28604;51.204;22.552;2023-04-25T11:40:08;5.78;;;5.22;;
42964;SDS011;28604;51.204;22.552;2023-04-25T11:42:53;6.80;;;6.25;;
42964;SDS011;28604;51.204;22.552;2023-04-25T11:45:19;6.25;;;5.65;;
42964;SDS011;28604;51.204;22.552;2023-04-25T11:47:46;5.28;;;4.90;;
42964;SDS011;28604;51.204;22.552;2023-04-25T11:50:12;2.35;;;2.25;;
42964;SDS011;28604;51.204;22.552;2023-04-25T11:52:40;2.15;;;2.05;;
42964;SDS011;28604;51.204;22.552;2023-04-25T11:55:08;3.65;;;2.05;;
42964;SDS011;28604;51.204;22.552;2023-04-25T11:57:37;2.65;;;2.13;;
42964;SDS011;28604;51.204;22.552;2023-04-25T12:00:15;2.25;;;2.15;;
42964;SDS011;28604;51.204;22.552;2023-04-25T12:02:44;2.00;;;1.77;;
42964;SDS011;28604;51.204;22.552;2023-04-25T12:05:23;2.08;;;2.08;;
42964;SDS011;28604;51.204;22.552;2023-04-25T12:07:50;2.10;;;2.00;;
42964;SDS011;28604;51.204;22.552;2023-04-25T12:10:17;2.58;;;1.90;;
42964;SDS011;28604;51.204;22.552;2023-04-25T12:12:44;3.08;;;2.15;;
42964;SDS011;28604;51.204;22.552;2023-04-25T12:17:50;2.28;;;1.77;;
42964;SDS011;28604;51.204;22.552;2023-04-25T12:20:18;2.05;;;1.98;;
42964;SDS011;28604;51.204;22.552;2023-04-25T12:22:46;1.90;;;1.80;;
42964;SDS011;28604;51.204;22.552;2023-04-25T12:25:33;2.88;;;2.53;;
42964;SDS011;28604;51.204;22.552;2023-04-25T12:28:18;2.53;;;2.42;;
42964;SDS011;28604;51.204;22.552;2023-04-25T12:30:58;2.42;;;2.22;;
42964;SDS011;28604;51.204;22.552;2023-04-25T12:33:30;2.50;;;2.40;;
42964;SDS011;28604;51.204;22.552;2023-04-25T12:36:00;3.10;;;3.00;;
42964;SDS011;28604;51.204;22.552;2023-04-25T12:38:39;2.88;;;2.65;;
42964;SDS011;28604;51.204;22.552;2023-04-25T12:41:07;4.95;;;3.20;;
42964;SDS011;28604;51.204;22.552;2023-04-25T12:43:33;2.92;;;2.83;;
42964;SDS011;28604;51.204;22.552;2023-04-25T12:46:00;3.35;;;3.20;;
42964;SDS011;28604;51.204;22.552;2023-04-25T12:48:26;3.53;;;3.25;;
42964;SDS011;28604;51.204;22.552;2023-04-25T12:50:52;4.35;;;3.67;;
42964;SDS011;28604;51.204;22.552;2023-04-25T12:53:19;6.18;;;3.53;;
42964;SDS011;28604;51.204;22.552;2023-04-25T12:55:46;3.83;;;3.53;;
42964;SDS011;28604;51.204;22.552;2023-04-25T12:58:13;5.50;;;3.20;;
42964;SDS011;28604;51.204;22.552;2023-04-25T13:00:43;3.80;;;3.50;;
42964;SDS011;28604;51.204;22.552;2023-04-25T13:03:10;3.80;;;3.63;;
42964;SDS011;28604;51.204;22.552;2023-04-25T13:05:37;4.03;;;3.83;;
42964;SDS011;28604;51.204;22.552;2023-04-25T13:08:04;3.25;;;3.15;;
42964;SDS011;28604;51.204;22.552;2023-04-25T13:10:30;4.10;;;3.90;;
42964;SDS011;28604;51.204;22.552;2023-04-25T13:12:56;3.53;;;3.33;;
42964;SDS011;28604;51.204;22.552;2023-04-25T13:15:22;4.53;;;4.18;;
42964;SDS011;28604;51.204;22.552;2023-04-25T13:17:48;4.15;;;3.90;;
42964;SDS011;28604;51.204;22.552;2023-04-25T13:20:14;4.63;;;4.30;;
42964;SDS011;28604;51.204;22.552;2023-04-25T13:22:41;4.07;;;3.78;;
42964;SDS011;28604;51.204;22.552;2023-04-25T13:25:08;4.47;;;4.18;;
42964;SDS011;28604;51.204;22.552;2023-04-25T13:27:34;3.92;;;3.83;;
42964;SDS011;28604;51.204;22.552;2023-04-25T13:30:02;5.13;;;4.65;;
42964;SDS011;28604;51.204;22.552;2023-04-25T13:32:36;5.43;;;5.03;;
42964;SDS011;28604;51.204;22.552;2023-04-25T13:35:03;4.45;;;4.15;;
42964;SDS011;28604;51.204;22.552;2023-04-25T13:37:30;5.10;;;4.60;;
42964;SDS011;28604;51.204;22.552;2023-04-25T13:40:01;4.13;;;3.72;;
42964;SDS011;28604;51.204;22.552;2023-04-25T13:44:56;5.20;;;4.78;;
42964;SDS011;28604;51.204;22.552;2023-04-25T13:47:22;4.63;;;4.32;;
42964;SDS011;28604;51.204;22.552;2023-04-25T13:49:48;4.72;;;4.53;;
42964;SDS011;28604;51.204;22.552;2023-04-25T13:52:15;4.88;;;4.57;;
42964;SDS011;28604;51.204;22.552;2023-04-25T13:54:41;5.35;;;4.97;;
42964;SDS011;28604;51.204;22.552;2023-04-25T13:57:07;5.63;;;5.13;;
42964;SDS011;28604;51.204;22.552;2023-04-25T13:59:33;5.53;;;5.13;;
42964;SDS011;28604;51.204;22.552;2023-04-25T14:01:59;5.40;;;5.10;;
42964;SDS011;28604;51.204;22.552;2023-04-25T14:04:25;6.15;;;5.75;;
42964;SDS011;28604;51.204;22.552;2023-04-25T14:06:51;5.13;;;4.82;;
42964;SDS011;28604;51.204;22.552;2023-04-25T14:09:18;6.28;;;5.80;;
42964;SDS011;28604;51.204;22.552;2023-04-25T14:11:45;5.68;;;5.22;;
42964;SDS011;28604;51.204;22.552;2023-04-25T14:14:11;5.95;;;5.43;;
42964;SDS011;28604;51.204;22.552;2023-04-25T14:16:37;6.03;;;5.63;;
42964;SDS011;28604;51.204;22.552;2023-04-25T14:19:03;6.88;;;6.40;;
42964;SDS011;28604;51.204;22.552;2023-04-25T14:21:29;6.15;;;5.63;;
42964;SDS011;28604;51.204;22.552;2023-04-25T14:23:57;8.43;;;7.72;;
42964;SDS011;28604;51.204;22.552;2023-04-25T14:26:23;7.82;;;7.07;;
42964;SDS011;28604;51.204;22.552;2023-04-25T14:28:50;6.85;;;6.45;;
42964;SDS011;28604;51.204;22.552;2023-04-25T14:31:17;6.20;;;5.88;;
42964;SDS011;28604;51.204;22.552;2023-04-25T14:33:43;7.75;;;6.35;;
42964;SDS011;28604;51.204;22.552;2023-04-25T14:36:09;7.40;;;6.70;;
42964;SDS011;28604;51.204;22.552;2023-04-25T14:38:35;8.85;;;7.95;;
42964;SDS011;28604;51.204;22.552;2023-04-25T14:41:01;9.98;;;7.20;;
42964;SDS011;28604;51.204;22.552;2023-04-25T14:43:27;7.57;;;6.68;;
42964;SDS011;28604;51.204;22.552;2023-04-25T14:45:53;7.70;;;7.00;;
42964;SDS011;28604;51.204;22.552;2023-04-25T14:48:19;7.72;;;7.13;;
42964;SDS011;28604;51.204;22.552;2023-04-25T14:50:45;9.30;;;8.50;;
42964;SDS011;28604;51.204;22.552;2023-04-25T14:53:12;9.20;;;8.40;;
42964;SDS011;28604;51.204;22.552;2023-04-25T14:55:38;7.88;;;7.18;;
42964;SDS011;28604;51.204;22.552;2023-04-25T14:58:04;11.25;;;9.73;;